createdAt,value
2017-11-25T00:00:17.122Z,962.3
2017-11-25T00:01:18.822Z,962.2
2017-11-25T00:02:20.496Z,962.2
2017-11-25T00:03:22.169Z,962.1
2017-11-25T00:04:23.837Z,962.1
2017-11-25T00:05:25.473Z,962.1
2017-11-25T00:06:27.183Z,962.1
2017-11-25T00:07:28.848Z,962.0
2017-11-25T00:08:30.514Z,962.0
2017-11-25T00:09:32.239Z,962.0
2017-11-25T00:10:33.881Z,962.0
2017-11-25T00:11:35.526Z,962.0
2017-11-25T00:12:37.174Z,961.9
2017-11-25T00:13:38.825Z,961.9
2017-11-25T00:14:40.478Z,961.9
2017-11-25T00:15:42.135Z,961.9
2017-11-25T00:16:44.603Z,961.8
2017-11-25T00:17:46.257Z,961.9
2017-11-25T00:18:47.934Z,961.8
2017-11-25T00:19:49.593Z,961.8
2017-11-25T00:20:51.239Z,961.8
2017-11-25T00:21:52.882Z,961.8
2017-11-25T00:22:54.529Z,961.7
2017-11-25T00:23:56.184Z,961.7
2017-11-25T00:24:57.852Z,961.7
2017-11-25T00:25:59.495Z,961.7
2017-11-25T00:27:01.146Z,961.7
2017-11-25T00:28:02.806Z,961.6
2017-11-25T00:29:04.460Z,961.6
2017-11-25T00:30:06.105Z,961.6
2017-11-25T00:31:07.766Z,961.5
2017-11-25T00:32:09.422Z,961.6
2017-11-25T00:33:11.080Z,961.5
2017-11-25T00:34:13.593Z,961.6
2017-11-25T00:35:15.243Z,961.6
2017-11-25T00:36:16.885Z,961.6
2017-11-25T00:37:18.534Z,961.6
2017-11-25T00:38:20.189Z,961.5
2017-11-25T00:39:21.842Z,961.5
2017-11-25T00:40:23.493Z,961.5
2017-11-25T00:41:25.144Z,961.5
2017-11-25T00:42:26.792Z,961.5
2017-11-25T00:43:28.447Z,961.5
2017-11-25T00:44:30.101Z,961.5
2017-11-25T00:45:31.751Z,961.5
2017-11-25T00:46:33.406Z,961.4
2017-11-25T00:47:35.052Z,961.4
2017-11-25T00:48:36.703Z,961.3
2017-11-25T00:49:38.368Z,961.3
2017-11-25T00:50:39.998Z,961.3
2017-11-25T00:51:41.656Z,961.3
2017-11-25T00:52:43.301Z,961.3
2017-11-25T00:53:44.954Z,961.2
2017-11-25T00:54:46.615Z,961.2
2017-11-25T00:55:48.264Z,961.1
2017-11-25T00:56:49.900Z,961.1
2017-11-25T00:57:51.546Z,961.1
2017-11-25T00:58:53.212Z,961.1
2017-11-25T00:59:54.859Z,961.1
2017-11-25T01:00:56.509Z,961.1
2017-11-25T01:01:58.161Z,961.2
2017-11-25T01:02:59.809Z,961.2
2017-11-25T01:04:01.467Z,961.2
2017-11-25T01:05:03.121Z,961.2
2017-11-25T01:06:04.837Z,961.2
2017-11-25T01:07:07.419Z,961.1
2017-11-25T01:08:09.081Z,961.1
2017-11-25T01:09:10.727Z,961.1
2017-11-25T01:10:12.370Z,961.1
2017-11-25T01:11:14.033Z,961.1
2017-11-25T01:12:15.679Z,961.0
2017-11-25T01:13:17.336Z,961.0
2017-11-25T01:14:18.983Z,961.1
2017-11-25T01:15:20.635Z,961.1
2017-11-25T01:16:22.293Z,961.1
2017-11-25T01:17:23.943Z,961.0
2017-11-25T01:18:25.597Z,961.1
2017-11-25T01:19:27.239Z,961.0
2017-11-25T01:20:28.894Z,961.0
2017-11-25T01:21:30.540Z,961.0
2017-11-25T01:22:32.187Z,961.0
2017-11-25T01:23:33.836Z,961.0
2017-11-25T01:24:35.487Z,961.0
2017-11-25T01:25:37.153Z,961.0
2017-11-25T01:26:38.795Z,961.0
2017-11-25T01:27:40.449Z,961.0
2017-11-25T01:28:42.099Z,961.0
2017-11-25T01:29:43.752Z,961.0
2017-11-25T01:30:45.397Z,961.0
2017-11-25T01:31:47.044Z,960.9
2017-11-25T01:32:48.691Z,960.9
2017-11-25T01:33:50.346Z,960.9
2017-11-25T01:34:52.035Z,960.9
2017-11-25T01:35:53.685Z,960.9
2017-11-25T01:36:55.340Z,960.9
2017-11-25T01:37:57.005Z,960.9
2017-11-25T01:38:58.657Z,960.9
2017-11-25T01:40:00.307Z,960.9
2017-11-25T01:41:01.960Z,960.8
2017-11-25T01:42:03.609Z,960.8
2017-11-25T01:43:06.496Z,960.8
2017-11-25T01:44:08.146Z,960.8
2017-11-25T01:45:09.801Z,960.8
2017-11-25T01:46:11.445Z,960.8
2017-11-25T01:47:13.096Z,960.8
2017-11-25T01:48:14.747Z,960.8
2017-11-25T01:49:16.419Z,960.8
2017-11-25T01:50:18.048Z,960.8
2017-11-25T01:51:19.740Z,960.7
2017-11-25T01:52:21.391Z,960.7
2017-11-25T01:53:23.107Z,960.7
2017-11-25T01:54:24.749Z,960.8
2017-11-25T01:55:26.401Z,960.8
2017-11-25T01:56:28.055Z,960.8
2017-11-25T01:57:29.704Z,960.7
2017-11-25T01:58:31.360Z,960.6
2017-11-25T01:59:33.003Z,960.6
2017-11-25T02:00:34.654Z,960.6
2017-11-25T02:01:36.328Z,960.6
2017-11-25T02:02:38.062Z,960.6
2017-11-25T02:03:39.644Z,960.6
2017-11-25T02:04:41.310Z,960.6
2017-11-25T02:05:42.979Z,960.6
2017-11-25T02:06:45.281Z,960.6
2017-11-25T02:07:46.336Z,960.5
2017-11-25T02:08:47.997Z,960.5
2017-11-25T02:09:49.637Z,960.5
2017-11-25T02:10:51.285Z,960.5
2017-11-25T02:11:52.937Z,960.5
2017-11-25T02:12:54.585Z,960.5
2017-11-25T02:13:56.240Z,960.5
2017-11-25T02:14:57.895Z,960.5
2017-11-25T02:15:59.541Z,960.5
2017-11-25T02:17:01.192Z,960.5
2017-11-25T02:18:02.856Z,960.5
2017-11-25T02:19:04.504Z,960.5
2017-11-25T02:20:06.158Z,960.5
2017-11-25T02:21:07.809Z,960.4
2017-11-25T02:22:09.459Z,960.3
2017-11-25T02:23:11.101Z,960.2
2017-11-25T02:24:12.742Z,960.2
2017-11-25T02:25:14.545Z,960.3
2017-11-25T02:26:16.202Z,960.3
2017-11-25T02:27:17.861Z,960.3
2017-11-25T02:28:20.766Z,960.3
2017-11-25T02:29:22.421Z,960.2
2017-11-25T02:30:24.079Z,960.2
2017-11-25T02:31:25.722Z,960.1
2017-11-25T02:32:27.371Z,960.1
2017-11-25T02:33:29.029Z,960.0
2017-11-25T02:34:30.683Z,959.9
2017-11-25T02:35:32.329Z,959.9
2017-11-25T02:36:33.990Z,959.9
2017-11-25T02:37:35.677Z,959.9
2017-11-25T02:38:37.323Z,959.9
2017-11-25T02:39:38.980Z,959.8
2017-11-25T02:40:40.628Z,959.8
2017-11-25T02:41:42.278Z,959.8
2017-11-25T02:42:43.916Z,959.7
2017-11-25T02:43:45.573Z,959.7
2017-11-25T02:44:47.214Z,959.7
2017-11-25T02:45:48.951Z,959.7
2017-11-25T02:46:50.602Z,959.7
2017-11-25T02:47:52.254Z,959.6
2017-11-25T02:48:53.917Z,959.6
2017-11-25T02:49:55.564Z,959.6
2017-11-25T02:50:57.220Z,959.6
2017-11-25T02:51:58.879Z,959.6
2017-11-25T02:53:00.545Z,959.6
2017-11-25T02:54:02.190Z,959.5
2017-11-25T02:55:03.869Z,959.5
2017-11-25T02:56:05.522Z,959.5
2017-11-25T02:57:07.268Z,959.5
2017-11-25T02:58:08.932Z,959.5
2017-11-25T02:59:10.595Z,959.5
2017-11-25T03:00:12.239Z,959.5
2017-11-25T03:01:13.885Z,959.4
2017-11-25T03:02:15.544Z,959.4
2017-11-25T03:03:17.203Z,959.4
2017-11-25T03:04:19.571Z,959.4
2017-11-25T03:05:21.223Z,959.4
2017-11-25T03:06:22.877Z,959.3
2017-11-25T03:07:24.519Z,959.3
2017-11-25T03:08:26.172Z,959.3
2017-11-25T03:09:27.821Z,959.2
2017-11-25T03:10:29.481Z,959.3
2017-11-25T03:11:31.127Z,959.2
2017-11-25T03:12:32.779Z,959.2
2017-11-25T03:13:34.430Z,959.1
2017-11-25T03:14:36.087Z,959.1
2017-11-25T03:15:37.723Z,959.1
2017-11-25T03:16:39.378Z,959.2
2017-11-25T03:17:41.052Z,959.2
2017-11-25T03:18:42.684Z,959.1
2017-11-25T03:19:44.343Z,959.2
2017-11-25T03:20:46.011Z,959.1
2017-11-25T03:21:47.662Z,959.1
2017-11-25T03:22:49.307Z,959.1
2017-11-25T03:23:50.960Z,959.1
2017-11-25T03:24:53.334Z,959.2
2017-11-25T03:25:54.981Z,959.2
2017-11-25T03:26:56.629Z,959.2
2017-11-25T03:27:58.814Z,959.2
2017-11-25T03:29:00.472Z,959.2
2017-11-25T03:30:02.167Z,959.1
2017-11-25T03:31:03.857Z,959.2
2017-11-25T03:32:05.506Z,959.2
2017-11-25T03:33:07.156Z,959.2
2017-11-25T03:34:08.814Z,959.1
2017-11-25T03:35:10.470Z,959.1
2017-11-25T03:36:12.211Z,959.1
2017-11-25T03:37:13.859Z,959.1
2017-11-25T03:38:15.519Z,959.2
2017-11-25T03:39:17.187Z,959.1
2017-11-25T03:40:18.817Z,959.1
2017-11-25T03:41:20.475Z,959.1
2017-11-25T03:42:22.136Z,959.2
2017-11-25T03:43:23.773Z,959.1
2017-11-25T03:44:25.425Z,959.2
2017-11-25T03:45:27.078Z,959.2
2017-11-25T03:46:28.731Z,959.2
2017-11-25T03:47:30.377Z,959.1
2017-11-25T03:48:32.016Z,959.1
2017-11-25T03:49:33.664Z,959.1
2017-11-25T03:50:35.328Z,959.1
2017-11-25T03:51:36.967Z,959.1
2017-11-25T03:52:38.624Z,959.0
2017-11-25T03:53:40.277Z,959.0
2017-11-25T03:54:42.399Z,959.0
2017-11-25T03:55:44.051Z,958.9
2017-11-25T03:56:45.711Z,958.9
2017-11-25T03:57:47.365Z,958.9
2017-11-25T03:58:49.028Z,958.9
2017-11-25T03:59:50.673Z,958.9
2017-11-25T04:00:52.335Z,959.0
2017-11-25T04:01:54.077Z,959.0
2017-11-25T04:02:55.712Z,958.9
2017-11-25T04:03:57.370Z,958.9
2017-11-25T04:04:59.020Z,958.9
2017-11-25T04:06:00.675Z,958.9
2017-11-25T04:07:02.322Z,958.9
2017-11-25T04:08:03.977Z,958.9
2017-11-25T04:09:05.630Z,958.9
2017-11-25T04:10:07.283Z,958.9
2017-11-25T04:11:08.995Z,958.8
2017-11-25T04:12:10.641Z,958.8
2017-11-25T04:13:12.291Z,958.8
2017-11-25T04:14:13.946Z,958.8
2017-11-25T04:15:15.597Z,958.8
2017-11-25T04:16:17.245Z,958.8
2017-11-25T04:17:18.896Z,958.7
2017-11-25T04:18:20.537Z,958.7
2017-11-25T04:19:22.186Z,958.6
2017-11-25T04:20:23.842Z,958.6
2017-11-25T04:21:25.493Z,958.6
2017-11-25T04:22:27.146Z,958.6
2017-11-25T04:23:28.785Z,958.6
2017-11-25T04:24:31.437Z,958.5
2017-11-25T04:25:33.091Z,958.5
2017-11-25T04:26:34.741Z,958.5
2017-11-25T04:27:36.396Z,958.5
2017-11-25T04:28:38.059Z,958.4
2017-11-25T04:29:39.707Z,958.5
2017-11-25T04:30:41.363Z,958.4
2017-11-25T04:31:43.011Z,958.5
2017-11-25T04:32:44.664Z,958.4
2017-11-25T04:33:46.316Z,958.4
2017-11-25T04:34:47.963Z,958.4
2017-11-25T04:35:49.642Z,958.4
2017-11-25T04:36:51.265Z,958.4
2017-11-25T04:37:52.909Z,958.4
2017-11-25T04:38:54.555Z,958.4
2017-11-25T04:39:56.209Z,958.4
2017-11-25T04:40:57.867Z,958.4
2017-11-25T04:41:59.506Z,958.4
2017-11-25T04:43:01.169Z,958.3
2017-11-25T04:44:02.861Z,958.3
2017-11-25T04:45:04.517Z,958.3
2017-11-25T04:46:06.151Z,958.3
2017-11-25T04:47:07.799Z,958.4
2017-11-25T04:48:09.465Z,958.3
2017-11-25T04:49:11.113Z,958.3
2017-11-25T04:50:12.771Z,958.3
2017-11-25T04:51:14.418Z,958.3
2017-11-25T04:52:16.063Z,958.3
2017-11-25T04:53:17.717Z,958.3
2017-11-25T04:54:19.369Z,958.3
2017-11-25T04:55:21.023Z,958.3
2017-11-25T04:56:22.686Z,958.3
2017-11-25T04:57:24.333Z,958.3
2017-11-25T04:58:25.987Z,958.3
2017-11-25T04:59:27.634Z,958.2
2017-11-25T05:00:29.284Z,958.2
2017-11-25T05:01:30.935Z,958.1
2017-11-25T05:02:32.579Z,958.2
2017-11-25T05:03:34.233Z,958.1
2017-11-25T05:04:35.877Z,958.1
2017-11-25T05:05:37.644Z,958.1
2017-11-25T05:06:39.168Z,958.0
2017-11-25T05:07:40.810Z,958.0
2017-11-25T05:08:42.459Z,958.0
2017-11-25T05:09:44.953Z,958.1
2017-11-25T05:10:46.596Z,958.1
2017-11-25T05:11:48.242Z,958.1
2017-11-25T05:12:49.887Z,958.2
2017-11-25T05:13:51.541Z,958.1
2017-11-25T05:14:53.213Z,958.2
2017-11-25T05:15:54.860Z,958.2
2017-11-25T05:16:56.507Z,958.2
2017-11-25T05:17:58.156Z,958.2
2017-11-25T05:18:59.809Z,958.2
2017-11-25T05:20:01.462Z,958.2
2017-11-25T05:21:03.122Z,958.1
2017-11-25T05:22:04.778Z,958.2
2017-11-25T05:23:06.421Z,958.2
2017-11-25T05:24:08.087Z,958.1
2017-11-25T05:25:09.729Z,958.1
2017-11-25T05:26:11.376Z,958.1
2017-11-25T05:27:13.044Z,958.1
2017-11-25T05:28:14.689Z,958.1
2017-11-25T05:29:16.331Z,958.1
2017-11-25T05:30:17.972Z,958.1
2017-11-25T05:31:19.654Z,958.1
2017-11-25T05:32:21.309Z,958.2
2017-11-25T05:33:22.961Z,958.2
2017-11-25T05:34:24.614Z,958.3
2017-11-25T05:35:26.264Z,958.2
2017-11-25T05:36:27.910Z,958.2
2017-11-25T05:37:29.554Z,958.3
2017-11-25T05:38:31.200Z,958.3
2017-11-25T05:39:32.857Z,958.3
2017-11-25T05:40:34.511Z,958.3
2017-11-25T05:41:36.160Z,958.3
2017-11-25T05:42:37.807Z,958.4
2017-11-25T05:43:39.452Z,958.3
2017-11-25T05:44:41.101Z,958.3
2017-11-25T05:45:42.744Z,958.2
2017-11-25T05:46:44.387Z,958.3
2017-11-25T05:47:46.040Z,958.3
2017-11-25T05:48:47.694Z,958.3
2017-11-25T05:49:49.338Z,958.3
2017-11-25T05:50:50.999Z,958.3
2017-11-25T05:51:52.643Z,958.4
2017-11-25T05:52:54.288Z,958.4
2017-11-25T05:53:55.941Z,958.4
2017-11-25T05:54:57.593Z,958.4
2017-11-25T05:55:59.245Z,958.4
2017-11-25T05:57:00.886Z,958.4
2017-11-25T05:58:02.542Z,958.4
2017-11-25T05:59:04.207Z,958.4
2017-11-25T06:00:05.856Z,958.4
2017-11-25T06:01:07.511Z,958.4
2017-11-25T06:02:09.155Z,958.4
2017-11-25T06:03:10.797Z,958.4
2017-11-25T06:04:12.445Z,958.4
2017-11-25T06:05:14.091Z,958.4
2017-11-25T06:06:15.738Z,958.4
2017-11-25T06:07:17.394Z,958.4
2017-11-25T06:08:19.050Z,958.4
2017-11-25T06:09:20.710Z,958.5
2017-11-25T06:10:22.343Z,958.4
2017-11-25T06:11:23.994Z,958.4
2017-11-25T06:12:25.638Z,958.4
2017-11-25T06:13:27.280Z,958.4
2017-11-25T06:14:28.930Z,958.4
2017-11-25T06:15:30.568Z,958.5
2017-11-25T06:16:32.224Z,958.4
2017-11-25T06:17:33.872Z,958.3
2017-11-25T06:18:35.519Z,958.4
2017-11-25T06:19:37.165Z,958.4
2017-11-25T06:20:38.814Z,958.4
2017-11-25T06:21:40.448Z,958.5
2017-11-25T06:22:42.099Z,958.5
2017-11-25T06:23:43.743Z,958.5
2017-11-25T06:24:45.382Z,958.4
2017-11-25T06:25:47.036Z,958.4
2017-11-25T06:26:48.680Z,958.4
2017-11-25T06:27:50.331Z,958.4
2017-11-25T06:28:51.984Z,958.5
2017-11-25T06:29:53.625Z,958.4
2017-11-25T06:30:55.263Z,958.5
2017-11-25T06:31:56.922Z,958.4
2017-11-25T06:32:58.585Z,958.4
2017-11-25T06:34:00.233Z,958.4
2017-11-25T06:35:01.879Z,958.3
2017-11-25T06:36:03.529Z,958.3
2017-11-25T06:37:05.176Z,958.3
2017-11-25T06:38:06.827Z,958.3
2017-11-25T06:39:08.464Z,958.3
2017-11-25T06:40:10.118Z,958.3
2017-11-25T06:41:11.774Z,958.3
2017-11-25T06:42:13.426Z,958.2
2017-11-25T06:43:15.820Z,958.2
2017-11-25T06:44:17.476Z,958.2
2017-11-25T06:45:19.130Z,958.2
2017-11-25T06:46:20.803Z,958.3
2017-11-25T06:47:22.537Z,958.2
2017-11-25T06:48:24.184Z,958.3
2017-11-25T06:49:25.824Z,958.3
2017-11-25T06:50:27.482Z,958.3
2017-11-25T06:51:29.132Z,958.4
2017-11-25T06:52:31.608Z,958.4
2017-11-25T06:53:33.254Z,958.4
2017-11-25T06:54:34.911Z,958.3
2017-11-25T06:55:36.569Z,958.3
2017-11-25T06:56:38.216Z,958.3
2017-11-25T06:57:39.862Z,958.3
2017-11-25T06:58:41.510Z,958.4
2017-11-25T06:59:43.175Z,958.4
2017-11-25T07:00:44.830Z,958.4
2017-11-25T07:01:46.483Z,958.4
2017-11-25T07:02:48.132Z,958.5
2017-11-25T07:03:49.790Z,958.6
2017-11-25T07:04:51.440Z,958.7
2017-11-25T07:05:53.079Z,958.7
2017-11-25T07:06:54.739Z,958.8
2017-11-25T07:07:56.453Z,958.8
2017-11-25T07:08:58.103Z,958.8
2017-11-25T07:09:59.785Z,958.8
2017-11-25T07:11:01.434Z,958.8
2017-11-25T07:12:03.100Z,958.8
2017-11-25T07:13:04.746Z,958.8
2017-11-25T07:14:06.406Z,958.8
2017-11-25T07:15:08.057Z,958.7
2017-11-25T07:16:09.689Z,958.7
2017-11-25T07:17:11.344Z,958.7
2017-11-25T07:18:12.997Z,958.7
2017-11-25T07:19:14.651Z,958.6
2017-11-25T07:20:16.308Z,958.7
2017-11-25T07:21:17.952Z,958.6
2017-11-25T07:22:19.610Z,958.7
2017-11-25T07:23:21.321Z,958.7
2017-11-25T07:24:23.025Z,958.6
2017-11-25T07:25:24.697Z,958.6
2017-11-25T07:26:26.373Z,958.7
2017-11-25T07:27:28.011Z,958.7
2017-11-25T07:28:30.433Z,958.7
2017-11-25T07:29:32.080Z,958.8
2017-11-25T07:30:33.731Z,958.7
2017-11-25T07:31:35.377Z,958.7
2017-11-25T07:32:37.052Z,958.7
2017-11-25T07:33:38.710Z,958.7
2017-11-25T07:34:40.354Z,958.8
2017-11-25T07:35:42.007Z,958.9
2017-11-25T07:36:43.661Z,959.0
2017-11-25T07:37:45.311Z,958.9
2017-11-25T07:38:46.955Z,959.0
2017-11-25T07:39:48.607Z,959.0
2017-11-25T07:40:50.266Z,959.0
2017-11-25T07:41:51.959Z,959.1
2017-11-25T07:42:53.634Z,959.0
2017-11-25T07:43:55.302Z,959.0
2017-11-25T07:44:56.983Z,959.0
2017-11-25T07:45:58.630Z,958.9
2017-11-25T07:47:00.271Z,959.0
2017-11-25T07:48:01.956Z,958.9
2017-11-25T07:49:03.622Z,959.0
2017-11-25T07:50:05.284Z,958.9
2017-11-25T07:51:06.938Z,959.0
2017-11-25T07:52:08.594Z,959.0
2017-11-25T07:53:10.253Z,958.9
2017-11-25T07:54:11.913Z,958.9
2017-11-25T07:55:13.558Z,959.0
2017-11-25T07:56:15.209Z,959.0
2017-11-25T07:57:16.866Z,959.1
2017-11-25T07:58:18.539Z,959.1
2017-11-25T07:59:20.179Z,959.1
2017-11-25T08:00:21.833Z,959.2
2017-11-25T08:01:24.442Z,959.2
2017-11-25T08:02:26.097Z,959.2
2017-11-25T08:03:27.750Z,959.2
2017-11-25T08:04:29.399Z,959.2
2017-11-25T08:05:31.074Z,959.2
2017-11-25T08:06:32.711Z,959.3
2017-11-25T08:07:34.411Z,959.3
2017-11-25T08:08:36.061Z,959.3
2017-11-25T08:09:37.718Z,959.3
2017-11-25T08:10:39.395Z,959.4
2017-11-25T08:11:41.054Z,959.4
2017-11-25T08:12:42.729Z,959.3
2017-11-25T08:13:44.393Z,959.3
2017-11-25T08:14:46.074Z,959.3
2017-11-25T08:15:47.731Z,959.2
2017-11-25T08:16:49.394Z,959.3
2017-11-25T08:17:51.045Z,959.3
2017-11-25T08:18:52.720Z,959.3
2017-11-25T08:19:54.465Z,959.3
2017-11-25T08:20:56.115Z,959.3
2017-11-25T08:21:57.763Z,959.4
2017-11-25T08:22:59.418Z,959.4
2017-11-25T08:24:01.093Z,959.5
2017-11-25T08:25:02.778Z,959.5
2017-11-25T08:26:04.417Z,959.6
2017-11-25T08:27:06.068Z,959.7
2017-11-25T08:28:07.739Z,959.6
2017-11-25T08:29:09.429Z,959.6
2017-11-25T08:30:11.091Z,959.6
2017-11-25T08:31:13.306Z,959.6
2017-11-25T08:32:14.336Z,959.6
2017-11-25T08:33:15.997Z,959.6
2017-11-25T08:34:18.524Z,959.6
2017-11-25T08:35:20.173Z,959.6
2017-11-25T08:36:21.824Z,959.7
2017-11-25T08:37:23.557Z,959.7
2017-11-25T08:38:25.232Z,959.7
2017-11-25T08:39:26.877Z,959.7
2017-11-25T08:40:28.535Z,959.7
2017-11-25T08:41:30.189Z,959.7
2017-11-25T08:42:31.956Z,959.7
2017-11-25T08:43:33.614Z,959.7
2017-11-25T08:44:35.272Z,959.7
2017-11-25T08:45:36.928Z,959.6
2017-11-25T08:46:38.590Z,959.7
2017-11-25T08:47:40.234Z,959.7
2017-11-25T08:48:42.406Z,959.7
2017-11-25T08:49:44.066Z,959.8
2017-11-25T08:50:45.730Z,959.8
2017-11-25T08:51:47.380Z,959.8
2017-11-25T08:52:49.039Z,959.9
2017-11-25T08:53:50.706Z,959.9
2017-11-25T08:54:52.368Z,959.9
2017-11-25T08:55:54.033Z,959.9
2017-11-25T08:56:55.690Z,959.9
2017-11-25T08:57:57.349Z,959.9
2017-11-25T08:58:59.009Z,959.9
2017-11-25T09:00:00.666Z,960.0
2017-11-25T09:01:02.337Z,960.0
2017-11-25T09:02:03.998Z,960.0
2017-11-25T09:03:05.646Z,960.0
2017-11-25T09:04:07.297Z,960.0
2017-11-25T09:05:08.966Z,960.0
2017-11-25T09:06:10.608Z,960.0
2017-11-25T09:07:12.257Z,960.0
2017-11-25T09:08:13.919Z,960.0
2017-11-25T09:09:15.571Z,960.0
2017-11-25T09:10:17.221Z,960.0
2017-11-25T09:11:18.866Z,960.0
2017-11-25T09:12:20.517Z,960.0
2017-11-25T09:13:22.173Z,960.0
2017-11-25T09:14:23.827Z,959.9
2017-11-25T09:15:25.491Z,959.9
2017-11-25T09:16:27.152Z,960.0
2017-11-25T09:17:28.807Z,960.0
2017-11-25T09:18:30.461Z,960.0
2017-11-25T09:19:32.124Z,960.0
2017-11-25T09:20:33.888Z,960.0
2017-11-25T09:21:35.536Z,960.0
2017-11-25T09:22:37.185Z,960.0
2017-11-25T09:23:38.903Z,960.0
2017-11-25T09:24:40.571Z,960.0
2017-11-25T09:25:42.226Z,960.0
2017-11-25T09:26:43.890Z,960.0
2017-11-25T09:27:45.565Z,960.0
2017-11-25T09:28:47.234Z,960.0
2017-11-25T09:29:48.888Z,960.1
2017-11-25T09:30:50.682Z,960.1
2017-11-25T09:31:52.917Z,960.1
2017-11-25T09:32:54.781Z,960.1
2017-11-25T09:33:56.713Z,960.2
2017-11-25T09:34:58.375Z,960.2
2017-11-25T09:36:00.035Z,960.2
2017-11-25T09:37:01.721Z,960.1
2017-11-25T09:38:03.400Z,960.1
2017-11-25T09:39:05.062Z,960.1
2017-11-25T09:40:06.745Z,960.2
2017-11-25T09:41:09.253Z,960.2
2017-11-25T09:42:10.967Z,960.3
2017-11-25T09:43:12.635Z,960.3
2017-11-25T09:44:14.298Z,960.3
2017-11-25T09:45:15.971Z,960.3
2017-11-25T09:46:17.672Z,960.4
2017-11-25T09:47:19.326Z,960.4
2017-11-25T09:48:20.995Z,960.3
2017-11-25T09:49:22.656Z,960.4
2017-11-25T09:50:24.313Z,960.4
2017-11-25T09:51:25.980Z,960.4
2017-11-25T09:52:27.616Z,960.5
2017-11-25T09:53:29.313Z,960.4
2017-11-25T09:54:30.965Z,960.4
2017-11-25T09:55:32.614Z,960.4
2017-11-25T09:56:34.270Z,960.4
2017-11-25T09:57:36.087Z,960.4
2017-11-25T09:58:37.940Z,960.4
2017-11-25T09:59:39.577Z,960.4
2017-11-25T10:00:41.246Z,960.4
2017-11-25T10:01:43.550Z,960.4
2017-11-25T10:02:45.200Z,960.4
2017-11-25T10:03:46.852Z,960.5
2017-11-25T10:04:48.512Z,960.5
2017-11-25T10:05:50.173Z,960.5
2017-11-25T10:06:51.842Z,960.5
2017-11-25T10:07:53.507Z,960.5
2017-11-25T10:08:55.165Z,960.5
2017-11-25T10:09:56.842Z,960.5
2017-11-25T10:10:58.504Z,960.5
2017-11-25T10:12:00.248Z,960.5
2017-11-25T10:13:01.921Z,960.5
2017-11-25T10:14:03.587Z,960.4
2017-11-25T10:15:05.575Z,960.5
2017-11-25T10:16:07.252Z,960.5
2017-11-25T10:17:08.913Z,960.4
2017-11-25T10:18:10.566Z,960.5
2017-11-25T10:19:12.225Z,960.5
2017-11-25T10:20:13.885Z,960.5
2017-11-25T10:21:15.582Z,960.4
2017-11-25T10:22:17.318Z,960.4
2017-11-25T10:23:18.973Z,960.5
2017-11-25T10:24:20.633Z,960.4
2017-11-25T10:25:22.294Z,960.4
2017-11-25T10:26:23.964Z,960.5
2017-11-25T10:27:26.519Z,960.5
2017-11-25T10:28:28.197Z,960.5
2017-11-25T10:29:29.857Z,960.5
2017-11-25T10:30:31.527Z,960.5
2017-11-25T10:31:33.174Z,960.5
2017-11-25T10:32:34.849Z,960.5
2017-11-25T10:33:36.507Z,960.6
2017-11-25T10:34:38.192Z,960.5
2017-11-25T10:35:39.847Z,960.5
2017-11-25T10:36:41.509Z,960.6
2017-11-25T10:37:43.185Z,960.6
2017-11-25T10:38:44.842Z,960.6
2017-11-25T10:39:46.506Z,960.7
2017-11-25T10:40:48.175Z,960.7
2017-11-25T10:41:49.886Z,960.7
2017-11-25T10:42:51.564Z,960.7
2017-11-25T10:43:53.222Z,960.7
2017-11-25T10:44:54.970Z,960.7
2017-11-25T10:45:56.630Z,960.7
2017-11-25T10:46:58.289Z,960.7
2017-11-25T10:48:00.034Z,960.8
2017-11-25T10:49:01.730Z,960.7
2017-11-25T10:50:03.413Z,960.7
2017-11-25T10:51:05.189Z,960.7
2017-11-25T10:52:06.849Z,960.8
2017-11-25T10:53:08.581Z,960.8
2017-11-25T10:54:10.246Z,960.8
2017-11-25T10:55:13.381Z,960.8
2017-11-25T10:56:15.042Z,960.8
2017-11-25T10:57:16.713Z,960.7
2017-11-25T10:58:18.363Z,960.8
2017-11-25T10:59:20.301Z,960.9
2017-11-25T11:00:21.971Z,960.8
2017-11-25T11:01:23.631Z,960.9
2017-11-25T11:02:25.303Z,960.9
2017-11-25T11:03:26.977Z,960.9
2017-11-25T11:04:28.634Z,960.9
2017-11-25T11:05:30.776Z,961.0
2017-11-25T11:06:32.437Z,960.9
2017-11-25T11:07:34.112Z,960.9
2017-11-25T11:08:35.777Z,960.9
2017-11-25T11:09:37.436Z,960.9
2017-11-25T11:10:39.110Z,960.9
2017-11-25T11:11:40.797Z,960.9
2017-11-25T11:12:42.472Z,960.9
2017-11-25T11:13:44.139Z,960.9
2017-11-25T11:14:45.797Z,960.9
2017-11-25T11:15:47.453Z,960.9
2017-11-25T11:16:49.122Z,960.9
2017-11-25T11:17:50.794Z,961.0
2017-11-25T11:18:52.448Z,960.9
2017-11-25T11:19:54.264Z,961.0
2017-11-25T11:20:56.411Z,961.0
2017-11-25T11:21:58.536Z,961.0
2017-11-25T11:23:00.213Z,961.0
2017-11-25T11:24:01.880Z,961.0
2017-11-25T11:25:03.561Z,961.0
2017-11-25T11:26:05.248Z,961.0
2017-11-25T11:27:07.534Z,961.1
2017-11-25T11:28:09.189Z,961.1
2017-11-25T11:29:10.858Z,961.1
2017-11-25T11:30:12.574Z,961.1
2017-11-25T11:31:14.261Z,961.1
2017-11-25T11:32:15.948Z,961.1
2017-11-25T11:33:17.586Z,961.1
2017-11-25T11:34:19.265Z,961.1
2017-11-25T11:35:20.905Z,961.1
2017-11-25T11:36:22.562Z,961.1
2017-11-25T11:37:24.223Z,961.2
2017-11-25T11:38:25.871Z,961.2
2017-11-25T11:39:27.540Z,961.2
2017-11-25T11:40:29.206Z,961.2
2017-11-25T11:41:30.854Z,961.3
2017-11-25T11:42:32.532Z,961.3
2017-11-25T11:43:34.310Z,961.3
2017-11-25T11:44:35.967Z,961.3
2017-11-25T11:45:37.634Z,961.3
2017-11-25T11:46:39.276Z,961.3
2017-11-25T11:47:40.928Z,961.3
2017-11-25T11:48:42.598Z,961.3
2017-11-25T11:49:44.251Z,961.4
2017-11-25T11:50:45.924Z,961.4
2017-11-25T11:51:47.611Z,961.4
2017-11-25T11:52:49.276Z,961.4
2017-11-25T11:53:50.935Z,961.4
2017-11-25T11:54:52.669Z,961.3
2017-11-25T11:55:54.320Z,961.4
2017-11-25T11:56:55.980Z,961.3
2017-11-25T11:57:57.716Z,961.4
2017-11-25T11:58:59.383Z,961.4
2017-11-25T12:00:01.122Z,961.4
2017-11-25T12:01:02.781Z,961.4
2017-11-25T12:02:04.445Z,961.4
2017-11-25T12:03:06.103Z,961.4
2017-11-25T12:04:07.829Z,961.4
2017-11-25T12:05:09.501Z,961.4
2017-11-25T12:06:11.161Z,961.4
2017-11-25T12:07:12.898Z,961.4
2017-11-25T12:08:14.607Z,961.4
2017-11-25T12:09:16.259Z,961.4
2017-11-25T12:10:17.934Z,961.4
2017-11-25T12:11:19.640Z,961.5
2017-11-25T12:12:21.303Z,961.5
2017-11-25T12:13:22.962Z,961.5
2017-11-25T12:14:24.628Z,961.5
2017-11-25T12:15:28.097Z,961.5
2017-11-25T12:16:29.585Z,961.4
2017-11-25T12:17:31.239Z,961.5
2017-11-25T12:18:34.466Z,961.5
2017-11-25T12:19:36.146Z,961.5
2017-11-25T12:20:40.296Z,961.5
2017-11-25T12:21:42.115Z,961.5
2017-11-25T12:22:44.512Z,961.6
2017-11-25T12:23:46.180Z,961.6
2017-11-25T12:24:47.847Z,961.5
2017-11-25T12:25:51.158Z,961.6
2017-11-25T12:26:55.544Z,961.6
2017-11-25T12:27:57.212Z,961.6
2017-11-25T12:28:58.881Z,961.6
2017-11-25T12:30:01.469Z,961.6
2017-11-25T12:31:04.860Z,961.6
2017-11-25T12:32:07.507Z,961.6
2017-11-25T12:33:09.553Z,961.6
2017-11-25T12:34:11.581Z,961.7
2017-11-25T12:35:13.167Z,961.6
2017-11-25T12:36:14.853Z,961.7
2017-11-25T12:37:16.516Z,961.7
2017-11-25T12:38:18.189Z,961.7
2017-11-25T12:39:19.858Z,961.6
2017-11-25T12:40:22.084Z,961.6
2017-11-25T12:41:24.112Z,961.7
2017-11-25T12:42:25.776Z,961.7
2017-11-25T12:43:27.439Z,961.7
2017-11-25T12:44:29.206Z,961.8
2017-11-25T12:45:30.874Z,961.8
2017-11-25T12:46:32.530Z,961.8
2017-11-25T12:47:34.206Z,961.8
2017-11-25T12:48:35.871Z,961.9
2017-11-25T12:49:37.534Z,961.9
2017-11-25T12:50:39.264Z,961.9
2017-11-25T12:51:40.958Z,961.9
2017-11-25T12:52:42.581Z,962.0
2017-11-25T12:53:44.983Z,962.0
2017-11-25T12:54:46.631Z,962.0
2017-11-25T12:55:48.277Z,962.0
2017-11-25T12:56:49.940Z,962.0
2017-11-25T12:57:51.617Z,962.1
2017-11-25T12:58:53.269Z,962.1
2017-11-25T12:59:54.933Z,962.1
2017-11-25T13:00:56.597Z,962.1
2017-11-25T13:01:58.260Z,962.1
2017-11-25T13:02:59.898Z,962.1
2017-11-25T13:04:01.555Z,962.1
2017-11-25T13:05:03.244Z,962.1
2017-11-25T13:06:04.917Z,962.2
2017-11-25T13:07:06.586Z,962.2
2017-11-25T13:08:08.334Z,962.2
2017-11-25T13:09:10.578Z,962.2
2017-11-25T13:10:12.229Z,962.3
2017-11-25T13:11:13.899Z,962.2
2017-11-25T13:12:15.565Z,962.3
2017-11-25T13:13:17.226Z,962.3
2017-11-25T13:14:18.888Z,962.3